createdAt,value
2022-08-21T00:00:31.682Z,13.60
2022-08-21T00:03:05.642Z,13.60
2022-08-21T00:05:37.036Z,13.50
2022-08-21T00:08:04.993Z,13.50
2022-08-21T00:10:32.549Z,13.50
2022-08-21T00:13:01.579Z,13.40
2022-08-21T00:15:31.374Z,13.40
2022-08-21T00:17:59.981Z,13.30
2022-08-21T00:20:27.544Z,13.30
2022-08-21T00:22:55.234Z,13.30
2022-08-21T00:25:26.003Z,13.30
2022-08-21T00:27:53.990Z,13.30
2022-08-21T00:30:23.638Z,13.40
2022-08-21T00:32:52.693Z,13.30
2022-08-21T00:35:23.542Z,13.30
2022-08-21T00:37:51.059Z,13.30
2022-08-21T00:40:21.619Z,13.30
2022-08-21T00:42:53.827Z,13.30
2022-08-21T00:45:23.490Z,13.30
2022-08-21T00:47:52.849Z,13.30
2022-08-21T00:50:22.182Z,13.30
2022-08-21T00:52:52.287Z,13.30
2022-08-21T00:55:23.528Z,13.30
2022-08-21T00:57:56.169Z,13.30
2022-08-21T01:00:29.881Z,13.30
2022-08-21T01:02:59.993Z,13.30
2022-08-21T01:05:28.014Z,13.30
2022-08-21T01:07:58.168Z,13.30
2022-08-21T01:10:26.537Z,13.30
2022-08-21T01:12:56.602Z,13.30
2022-08-21T01:15:29.597Z,13.20
2022-08-21T01:17:57.145Z,13.20
2022-08-21T01:20:32.402Z,13.20
2022-08-21T01:23:01.955Z,13.20
2022-08-21T01:25:29.847Z,13.20
2022-08-21T01:28:00.342Z,13.20
2022-08-21T01:30:29.870Z,13.20
2022-08-21T01:32:58.011Z,13.20
2022-08-21T01:35:25.590Z,13.20
2022-08-21T01:37:53.067Z,13.10
2022-08-21T01:40:20.564Z,13.10
2022-08-21T01:42:48.177Z,13.10
2022-08-21T01:45:16.826Z,13.10
2022-08-21T01:47:44.985Z,13.10
2022-08-21T01:50:15.158Z,13.00
2022-08-21T01:52:42.720Z,13.00
2022-08-21T01:55:13.330Z,13.00
2022-08-21T01:57:40.729Z,13.00
2022-08-21T02:00:12.213Z,13.00
2022-08-21T02:02:41.504Z,12.90
2022-08-21T02:05:10.982Z,12.90
2022-08-21T02:07:43.309Z,12.80
2022-08-21T02:10:14.240Z,12.80
2022-08-21T02:12:41.581Z,12.80
2022-08-21T02:15:10.585Z,12.80
2022-08-21T02:17:47.050Z,12.80
2022-08-21T02:20:22.486Z,12.70
2022-08-21T02:22:50.680Z,12.70
2022-08-21T02:25:19.352Z,12.70
2022-08-21T02:27:48.916Z,12.60
2022-08-21T02:30:29.069Z,12.60
2022-08-21T02:32:57.377Z,12.60
2022-08-21T02:35:25.464Z,12.60
2022-08-21T02:37:55.994Z,12.60
2022-08-21T02:40:28.311Z,12.60
2022-08-21T02:42:55.823Z,12.60
2022-08-21T02:45:23.166Z,12.60
2022-08-21T02:47:56.973Z,12.60
2022-08-21T02:50:30.837Z,12.60
2022-08-21T02:52:58.727Z,12.50
2022-08-21T02:55:28.855Z,12.50
2022-08-21T02:57:57.560Z,12.50
2022-08-21T03:00:27.176Z,12.50
2022-08-21T03:02:56.689Z,12.50
2022-08-21T03:05:25.770Z,12.50
2022-08-21T03:07:56.198Z,12.40
2022-08-21T03:10:24.026Z,12.40
2022-08-21T03:12:51.384Z,12.40
2022-08-21T03:15:21.519Z,12.40
2022-08-21T03:17:49.147Z,12.30
2022-08-21T03:20:24.076Z,12.40
2022-08-21T03:22:53.186Z,12.30
2022-08-21T03:25:38.876Z,12.30
2022-08-21T03:28:13.235Z,12.30
2022-08-21T03:30:47.603Z,12.30
2022-08-21T03:33:15.815Z,12.30
2022-08-21T03:35:59.013Z,12.30
2022-08-21T03:38:27.225Z,12.30
2022-08-21T03:40:54.887Z,12.30
2022-08-21T03:43:22.411Z,12.30
2022-08-21T03:45:50.274Z,12.30
2022-08-21T03:48:20.860Z,12.30
2022-08-21T03:50:50.390Z,12.40
2022-08-21T03:53:18.266Z,12.40
2022-08-21T03:55:48.166Z,12.40
2022-08-21T03:58:18.004Z,12.50
2022-08-21T04:00:48.015Z,12.50
2022-08-21T04:03:15.276Z,12.60
2022-08-21T04:05:43.218Z,12.60
2022-08-21T04:08:10.433Z,12.60
2022-08-21T04:10:40.457Z,12.60
2022-08-21T04:13:08.523Z,12.70
2022-08-21T04:15:36.465Z,12.70
2022-08-21T04:18:05.246Z,12.70
2022-08-21T04:20:32.504Z,12.70
2022-08-21T04:22:59.849Z,12.70
2022-08-21T04:25:27.308Z,12.70
2022-08-21T04:27:55.287Z,12.70
2022-08-21T04:30:28.208Z,12.70
2022-08-21T04:32:58.069Z,12.70
2022-08-21T04:35:28.019Z,12.70
2022-08-21T04:37:55.364Z,12.70
2022-08-21T04:40:28.616Z,12.80
2022-08-21T04:43:01.683Z,12.80
2022-08-21T04:45:36.470Z,12.80
2022-08-21T04:48:09.576Z,12.80
2022-08-21T04:50:42.854Z,12.80
2022-08-21T04:53:16.960Z,12.80
2022-08-21T04:55:45.444Z,12.80
2022-08-21T04:58:16.085Z,12.80
2022-08-21T05:00:43.420Z,12.80
2022-08-21T05:03:12.249Z,12.70
2022-08-21T05:05:40.843Z,12.70
2022-08-21T05:08:12.615Z,12.70
2022-08-21T05:10:40.042Z,12.70
2022-08-21T05:13:08.226Z,12.70
2022-08-21T05:15:35.440Z,12.70
2022-08-21T05:18:02.938Z,12.70
2022-08-21T05:20:30.411Z,12.70
2022-08-21T05:22:57.917Z,12.70
2022-08-21T05:25:25.929Z,12.70
2022-08-21T05:27:55.585Z,12.70
2022-08-21T05:30:25.520Z,12.80
2022-08-21T05:33:01.028Z,12.70
2022-08-21T05:35:29.712Z,12.80
2022-08-21T05:37:58.158Z,12.80
2022-08-21T05:40:26.258Z,12.80
2022-08-21T05:42:55.661Z,12.70
2022-08-21T05:45:31.591Z,12.80
2022-08-21T05:48:18.745Z,12.80
2022-08-21T05:50:47.916Z,12.80
2022-08-21T05:53:16.403Z,12.80
2022-08-21T05:55:46.436Z,12.80
2022-08-21T05:58:15.881Z,12.80
2022-08-21T06:00:44.089Z,12.80
2022-08-21T06:03:30.199Z,12.80
2022-08-21T06:05:57.608Z,12.80
2022-08-21T06:08:25.450Z,12.70
2022-08-21T06:10:54.111Z,12.70
2022-08-21T06:13:22.971Z,12.80
2022-08-21T06:15:51.066Z,12.80
2022-08-21T06:18:18.470Z,12.80
2022-08-21T06:20:46.704Z,12.80
2022-08-21T06:23:14.027Z,12.80
2022-08-21T06:25:41.315Z,12.90
2022-08-21T06:28:10.437Z,13.00
2022-08-21T06:30:40.213Z,13.00
2022-08-21T06:33:08.863Z,13.00
2022-08-21T06:35:36.639Z,13.10
2022-08-21T06:38:04.768Z,13.10
2022-08-21T06:40:35.009Z,13.10
2022-08-21T06:43:12.121Z,13.20
2022-08-21T06:45:42.977Z,13.20
2022-08-21T06:48:11.423Z,13.20
2022-08-21T06:50:41.438Z,13.20
2022-08-21T06:53:12.303Z,13.20
2022-08-21T06:55:41.235Z,13.30
2022-08-21T06:58:09.455Z,13.30
2022-08-21T07:00:39.923Z,13.30
2022-08-21T07:03:07.528Z,13.40
2022-08-21T07:05:34.897Z,13.40
2022-08-21T07:08:02.181Z,13.50
2022-08-21T07:10:30.081Z,13.60
2022-08-21T07:13:00.504Z,13.70
2022-08-21T07:15:32.242Z,13.70
2022-08-21T07:18:00.902Z,13.90
2022-08-21T07:20:30.572Z,13.90
2022-08-21T07:23:01.219Z,14.00
2022-08-21T07:25:28.770Z,14.10
2022-08-21T07:27:56.603Z,14.10
2022-08-21T07:30:25.015Z,14.20
2022-08-21T07:32:52.999Z,14.30
2022-08-21T07:35:21.752Z,14.30
2022-08-21T07:37:49.612Z,14.30
2022-08-21T07:40:18.402Z,14.40
2022-08-21T07:42:48.900Z,14.40
2022-08-21T07:45:17.045Z,14.50
2022-08-21T07:47:44.745Z,14.50
2022-08-21T07:50:18.457Z,14.60
2022-08-21T07:52:46.215Z,14.60
2022-08-21T07:55:16.601Z,14.60
2022-08-21T07:57:45.268Z,14.70
2022-08-21T08:00:17.058Z,14.80
2022-08-21T08:20:10.773Z,15.30
2022-08-21T08:22:40.110Z,15.30
2022-08-21T08:25:09.819Z,15.30
2022-08-21T08:27:38.603Z,15.40
2022-08-21T08:30:08.263Z,15.40
2022-08-21T08:32:35.866Z,15.50
2022-08-21T08:35:03.257Z,15.50
2022-08-21T08:37:34.693Z,15.60
2022-08-21T08:40:04.649Z,15.60
2022-08-21T08:42:35.816Z,15.70
2022-08-21T08:45:10.920Z,15.70
2022-08-21T08:47:51.220Z,15.80
2022-08-21T08:50:23.010Z,15.80
2022-08-21T08:52:58.924Z,15.90
2022-08-21T08:55:41.242Z,15.90
2022-08-21T08:58:17.082Z,16.00
2022-08-21T09:00:47.654Z,16.10
2022-08-21T09:03:16.605Z,16.30
2022-08-21T09:05:57.990Z,16.40
2022-08-21T09:08:43.978Z,16.50
2022-08-21T09:11:14.318Z,16.60
2022-08-21T09:14:07.736Z,16.60
2022-08-21T09:17:10.734Z,16.70
2022-08-21T09:20:05.659Z,16.80
2022-08-21T09:22:32.921Z,16.80
2022-08-21T09:25:23.994Z,16.80
2022-08-21T09:27:52.476Z,16.80
2022-08-21T09:30:24.974Z,16.70
2022-08-21T09:32:52.369Z,16.70
2022-08-21T09:35:25.274Z,16.70
2022-08-21T09:38:03.331Z,16.70
2022-08-21T09:40:37.002Z,16.80
2022-08-21T09:43:12.415Z,16.70
2022-08-21T09:45:42.976Z,16.70
2022-08-21T09:48:21.290Z,16.60
2022-08-21T09:50:50.763Z,16.70
2022-08-21T09:53:35.482Z,16.80
2022-08-21T09:56:36.064Z,16.80
2022-08-21T09:59:15.189Z,16.90
2022-08-21T10:01:48.689Z,17.00
2022-08-21T10:04:20.610Z,17.00
2022-08-21T10:06:48.213Z,17.00
2022-08-21T10:09:21.932Z,17.00
2022-08-21T10:12:25.112Z,16.90
2022-08-21T10:14:56.306Z,16.80
2022-08-21T10:17:42.192Z,16.80
2022-08-21T10:20:13.288Z,16.80
2022-08-21T10:22:40.496Z,16.80
2022-08-21T10:25:13.794Z,16.80
2022-08-21T10:28:04.851Z,16.80
2022-08-21T10:30:41.541Z,16.80
2022-08-21T10:33:35.268Z,16.80
2022-08-21T10:36:07.824Z,16.80
2022-08-21T10:42:15.391Z,16.90
2022-08-21T10:44:57.857Z,17.00
2022-08-21T10:47:38.992Z,17.00
2022-08-21T10:50:29.621Z,17.00
2022-08-21T10:53:34.103Z,17.00
2022-08-21T10:56:30.330Z,17.10
2022-08-21T10:59:08.773Z,17.10
2022-08-21T11:01:58.248Z,17.20
2022-08-21T11:04:49.030Z,17.20
2022-08-21T11:07:22.426Z,17.30
2022-08-21T11:09:51.387Z,17.20
2022-08-21T11:12:40.065Z,17.10
2022-08-21T11:15:28.927Z,17.00
2022-08-21T11:18:15.775Z,16.90
2022-08-21T11:21:14.345Z,16.90
2022-08-21T11:23:51.630Z,16.90
2022-08-21T11:26:30.408Z,16.90
2022-08-21T11:29:07.183Z,16.90
2022-08-21T11:31:53.268Z,16.90
2022-08-21T11:34:32.834Z,16.80
2022-08-21T11:37:23.397Z,16.90
2022-08-21T11:40:18.486Z,16.90
2022-08-21T11:42:53.963Z,16.90
2022-08-21T11:45:42.753Z,16.90
2022-08-21T11:48:32.044Z,17.00
2022-08-21T11:51:01.780Z,16.90
2022-08-21T11:53:32.537Z,16.90
2022-08-21T11:56:06.785Z,17.00
2022-08-21T11:58:42.036Z,17.10
2022-08-21T12:01:17.812Z,17.20
2022-08-21T12:04:03.286Z,17.30
2022-08-21T12:06:42.731Z,17.30
2022-08-21T12:09:35.411Z,17.30
2022-08-21T12:12:08.774Z,17.40
2022-08-21T12:14:50.620Z,17.60
2022-08-21T12:17:21.621Z,17.70
2022-08-21T12:20:00.301Z,17.80
2022-08-21T12:22:41.788Z,17.80
2022-08-21T12:25:21.368Z,17.80
2022-08-21T12:27:53.217Z,17.80
2022-08-21T12:30:29.579Z,17.70
2022-08-21T12:33:04.684Z,17.80
2022-08-21T12:35:44.602Z,17.90
2022-08-21T12:38:16.900Z,17.90
2022-08-21T12:41:05.849Z,18.10
2022-08-21T12:43:45.235Z,18.30
2022-08-21T12:46:51.568Z,18.40
2022-08-21T12:49:31.900Z,18.60
2022-08-21T12:52:02.269Z,18.90
2022-08-21T12:54:33.619Z,19.00
2022-08-21T12:57:04.506Z,19.10
2022-08-21T12:59:33.688Z,19.10
2022-08-21T13:02:04.327Z,19.20
2022-08-21T13:04:41.230Z,19.30
2022-08-21T13:07:15.277Z,19.40
2022-08-21T13:09:53.598Z,19.50
2022-08-21T13:12:22.770Z,19.50
2022-08-21T13:14:52.693Z,19.60
2022-08-21T13:17:26.322Z,19.70
2022-08-21T13:20:05.792Z,19.70
2022-08-21T13:22:35.475Z,19.70
2022-08-21T13:25:06.801Z,19.70
2022-08-21T13:27:35.482Z,19.80
2022-08-21T13:30:18.472Z,20.00
2022-08-21T13:32:51.368Z,20.10
2022-08-21T13:35:26.787Z,20.30
2022-08-21T13:37:56.179Z,20.20
2022-08-21T13:40:31.636Z,20.10
2022-08-21T13:43:01.113Z,20.10
2022-08-21T13:45:33.180Z,20.10
2022-08-21T13:48:06.242Z,19.90
2022-08-21T13:50:37.814Z,19.80
2022-08-21T13:53:08.286Z,19.60
2022-08-21T13:55:37.153Z,19.60
2022-08-21T13:58:05.973Z,19.60
2022-08-21T14:00:36.715Z,19.50
2022-08-21T14:03:08.876Z,19.60
2022-08-21T14:05:39.812Z,19.60
2022-08-21T14:08:10.077Z,19.60
2022-08-21T14:10:46.952Z,19.40
2022-08-21T14:13:34.562Z,19.40
2022-08-21T14:16:22.261Z,19.30
2022-08-21T14:19:29.381Z,19.40
2022-08-21T14:21:56.974Z,19.50
2022-08-21T14:24:24.401Z,19.60
2022-08-21T14:27:07.441Z,19.70
2022-08-21T14:29:44.014Z,19.70
2022-08-21T14:32:28.138Z,19.70
2022-08-21T14:34:55.533Z,19.70
2022-08-21T14:37:26.953Z,19.50
2022-08-21T14:39:54.292Z,19.40
2022-08-21T14:42:22.105Z,19.50
2022-08-21T14:44:49.369Z,19.50
2022-08-21T14:47:16.824Z,19.70
2022-08-21T14:49:44.141Z,19.80
2022-08-21T14:52:11.537Z,19.90
2022-08-21T14:54:38.962Z,19.80
2022-08-21T14:57:10.055Z,19.70
2022-08-21T14:59:38.779Z,19.70
2022-08-21T15:02:09.891Z,19.50
2022-08-21T15:04:37.318Z,19.40
2022-08-21T15:07:06.522Z,19.30
2022-08-21T15:09:33.888Z,19.20
2022-08-21T15:12:03.312Z,19.20
2022-08-21T15:14:33.597Z,19.10
2022-08-21T15:17:00.939Z,19.10
2022-08-21T15:19:30.462Z,19.00
2022-08-21T15:21:58.440Z,18.80
2022-08-21T15:24:26.344Z,18.60
2022-08-21T15:26:56.049Z,18.50
2022-08-21T15:29:23.695Z,18.40
2022-08-21T15:31:54.739Z,18.30
2022-08-21T15:34:23.317Z,18.50
2022-08-21T15:36:56.226Z,18.60
2022-08-21T15:39:31.262Z,18.70
2022-08-21T15:42:06.161Z,18.70
2022-08-21T15:44:40.248Z,18.70
2022-08-21T15:47:12.480Z,18.80
2022-08-21T15:49:39.967Z,18.90
2022-08-21T15:52:07.145Z,18.90
2022-08-21T15:54:34.512Z,18.90
2022-08-21T15:57:01.802Z,18.90
2022-08-21T15:59:40.830Z,19.00
2022-08-21T16:02:16.475Z,19.10
2022-08-21T16:04:44.159Z,19.20
2022-08-21T16:07:12.172Z,19.30
2022-08-21T16:09:40.044Z,19.30
2022-08-21T16:12:07.693Z,19.20
2022-08-21T16:14:37.374Z,19.10
2022-08-21T16:17:09.019Z,19.30
2022-08-21T16:19:37.415Z,19.40
2022-08-21T16:22:05.008Z,19.40
2022-08-21T16:24:32.582Z,19.40
2022-08-21T16:27:02.613Z,19.30
2022-08-21T16:29:35.294Z,19.30
2022-08-21T16:32:05.373Z,19.30
2022-08-21T16:34:34.151Z,19.30
2022-08-21T16:37:01.475Z,19.30
2022-08-21T16:39:28.947Z,19.20
2022-08-21T16:41:56.288Z,19.20
2022-08-21T16:44:23.609Z,19.30
2022-08-21T16:46:51.062Z,19.30
2022-08-21T16:49:18.422Z,19.30
2022-08-21T16:51:45.661Z,19.40
2022-08-21T16:54:14.148Z,19.40
2022-08-21T16:56:45.708Z,19.30
2022-08-21T16:59:15.206Z,19.10
2022-08-21T17:01:45.838Z,19.10
2022-08-21T17:04:13.474Z,19.10
2022-08-21T17:06:41.166Z,19.10
2022-08-21T17:09:08.379Z,19.00
2022-08-21T17:11:39.464Z,19.00
2022-08-21T17:14:14.218Z,18.90
2022-08-21T17:16:46.213Z,18.70
2022-08-21T17:19:14.764Z,18.80
2022-08-21T17:21:42.316Z,18.70
2022-08-21T17:24:09.743Z,18.60
2022-08-21T17:26:38.010Z,18.50
2022-08-21T17:29:10.045Z,18.50
2022-08-21T17:31:39.520Z,18.50
2022-08-21T17:34:07.283Z,18.50
2022-08-21T17:36:34.664Z,18.40
2022-08-21T17:39:02.653Z,18.40
2022-08-21T17:41:30.078Z,18.40
2022-08-21T17:43:57.624Z,18.30
2022-08-21T17:46:28.533Z,18.20
2022-08-21T17:48:57.558Z,18.20
2022-08-21T17:51:25.206Z,18.10
2022-08-21T17:53:52.501Z,18.10
2022-08-21T17:56:21.041Z,18.10
2022-08-21T17:58:51.133Z,18.10
2022-08-21T18:01:19.868Z,18.00
2022-08-21T18:03:48.094Z,18.00
2022-08-21T18:06:17.953Z,18.00
2022-08-21T18:08:46.340Z,18.00
2022-08-21T18:11:23.994Z,18.00
2022-08-21T18:13:55.543Z,18.00
2022-08-21T18:16:24.089Z,17.90
2022-08-21T18:18:52.043Z,17.80
2022-08-21T18:21:20.236Z,17.70
2022-08-21T18:23:47.973Z,17.60
2022-08-21T18:26:21.355Z,17.60
2022-08-21T18:28:48.740Z,17.50
2022-08-21T18:31:16.097Z,17.50
2022-08-21T18:33:58.217Z,17.40
2022-08-21T18:36:30.095Z,17.40
2022-08-21T18:39:13.363Z,17.30
2022-08-21T18:41:47.075Z,17.30
2022-08-21T18:44:16.197Z,17.20
2022-08-21T18:46:49.185Z,17.20
2022-08-21T18:49:16.476Z,17.10
2022-08-21T18:51:45.459Z,17.10
2022-08-21T18:54:13.262Z,17.00
2022-08-21T18:56:41.856Z,17.00
2022-08-21T18:59:10.413Z,16.90
2022-08-21T19:01:38.470Z,16.90
2022-08-21T19:04:08.867Z,16.80
2022-08-21T19:06:36.618Z,16.70
2022-08-21T19:09:07.881Z,16.70
2022-08-21T19:11:36.676Z,16.60
2022-08-21T19:14:15.850Z,16.60
2022-08-21T19:16:47.037Z,16.60
2022-08-21T19:19:16.159Z,16.60
2022-08-21T19:21:43.418Z,16.70
2022-08-21T19:24:17.389Z,16.70
2022-08-21T19:26:45.517Z,16.70
2022-08-21T19:29:18.484Z,16.60
2022-08-21T19:31:46.723Z,16.70
2022-08-21T19:34:20.225Z,16.70
2022-08-21T19:36:47.786Z,16.70
2022-08-21T19:39:16.438Z,16.80
2022-08-21T19:41:46.556Z,16.80
2022-08-21T19:44:22.193Z,16.80
2022-08-21T19:46:52.193Z,16.80
2022-08-21T19:49:26.971Z,16.80
2022-08-21T19:51:54.954Z,16.80
2022-08-21T19:54:26.195Z,16.80
2022-08-21T19:56:57.362Z,16.70
2022-08-21T19:59:28.175Z,16.70
2022-08-21T20:01:56.166Z,16.70
2022-08-21T20:04:24.111Z,16.70
2022-08-21T20:06:55.351Z,16.70
2022-08-21T20:09:23.134Z,16.70
2022-08-21T20:11:56.294Z,16.70
2022-08-21T20:14:27.211Z,16.80
2022-08-21T20:17:05.280Z,16.80
2022-08-21T20:19:33.032Z,16.70
2022-08-21T20:22:00.727Z,16.80
2022-08-21T20:24:29.880Z,16.80
2022-08-21T20:26:57.828Z,16.80
2022-08-21T20:29:31.446Z,16.80
2022-08-21T20:32:04.614Z,16.80
2022-08-21T20:34:33.159Z,16.80
2022-08-21T20:37:01.564Z,16.80
2022-08-21T20:39:30.096Z,16.80
2022-08-21T20:41:58.165Z,16.80
2022-08-21T20:44:31.659Z,16.70
2022-08-21T20:47:00.806Z,16.70
2022-08-21T20:49:45.165Z,16.70
2022-08-21T20:52:14.331Z,16.70
2022-08-21T20:54:50.187Z,16.70
2022-08-21T20:57:42.617Z,16.70
2022-08-21T21:00:16.959Z,16.70
2022-08-21T21:02:57.599Z,16.70
2022-08-21T21:05:31.991Z,16.70
2022-08-21T21:08:03.384Z,16.70
2022-08-21T21:10:56.240Z,16.70
2022-08-21T21:13:54.572Z,16.70
2022-08-21T21:16:30.685Z,16.70
2022-08-21T21:19:37.096Z,16.60
2022-08-21T21:22:14.291Z,16.60
2022-08-21T21:25:01.847Z,16.60
2022-08-21T21:27:42.959Z,16.50
2022-08-21T21:30:29.382Z,16.50
2022-08-21T21:32:56.713Z,16.50
2022-08-21T21:35:36.618Z,16.50
2022-08-21T21:38:11.750Z,16.50
2022-08-21T21:40:57.548Z,16.50
2022-08-21T21:43:54.033Z,16.60
2022-08-21T21:46:33.651Z,16.50
2022-08-21T21:49:20.230Z,16.50
2022-08-21T21:52:10.225Z,16.50
2022-08-21T21:54:51.818Z,16.50
2022-08-21T21:57:39.766Z,16.50
2022-08-21T22:00:20.600Z,16.50
2022-08-21T22:03:19.957Z,16.40
2022-08-21T22:06:13.128Z,16.40
2022-08-21T22:08:48.914Z,16.30
2022-08-21T22:11:46.545Z,16.30
2022-08-21T22:14:15.518Z,16.20
2022-08-21T22:16:46.281Z,16.20
2022-08-21T22:19:24.662Z,16.20
2022-08-21T22:22:01.965Z,16.10
2022-08-21T22:24:40.306Z,16.10
2022-08-21T22:27:13.375Z,16.10
2022-08-21T22:29:46.500Z,16.10
2022-08-21T22:32:24.773Z,16.00
2022-08-21T22:35:25.987Z,16.00
2022-08-21T22:37:57.917Z,15.90
2022-08-21T22:40:36.071Z,15.80
2022-08-21T22:43:29.868Z,15.60
2022-08-21T22:46:00.806Z,15.50
2022-08-21T22:48:36.253Z,15.50
2022-08-21T22:51:30.082Z,15.40
2022-08-21T22:54:00.665Z,15.30
2022-08-21T22:56:32.996Z,15.30
2022-08-21T22:59:05.090Z,15.20
2022-08-21T23:01:38.099Z,15.00
2022-08-21T23:04:20.276Z,15.00
2022-08-21T23:06:52.605Z,14.90
2022-08-21T23:09:33.808Z,14.80
2022-08-21T23:14:54.792Z,14.80
2022-08-21T23:18:12.464Z,14.80
2022-08-21T23:20:59.643Z,14.70
2022-08-21T23:23:30.422Z,14.70
2022-08-21T23:26:26.786Z,14.70
2022-08-21T23:29:30.876Z,14.70
2022-08-21T23:32:25.080Z,14.70
2022-08-21T23:35:14.372Z,14.60
2022-08-21T23:38:09.229Z,14.60
2022-08-21T23:40:50.866Z,14.50
2022-08-21T23:43:45.480Z,14.50
2022-08-21T23:46:33.970Z,14.50
2022-08-21T23:49:20.583Z,14.50
2022-08-21T23:52:15.207Z,14.50
2022-08-21T23:55:12.077Z,14.40
2022-08-21T23:57:54.802Z,14.50
